Time;durP1;ratioP1;P1;durP2;ratioP2;P2;SDS_P1;SDS_P2;PMS_P1;PMS_P2;Temp;Humidity;BMP_temperature;BMP_pressure;BME280_temperature;BME280_humidity;BME280_pressure;Samples;Min_cycle;Max_cycle;Signal;HPM_P1;HPM_P2
2021/09/12 00:00:20;;;;;;;24.30;7.53;;;16.90;99.90;;;;;;4192564;28;20119;-72
2021/09/12 00:02:21;;;;;;;24.55;7.95;;;16.80;99.90;;;;;;4192008;28;20036;-72
2021/09/12 00:04:21;;;;;;;17.42;7.20;;;16.80;99.90;;;;;;4192029;28;20040;-71
2021/09/12 00:06:22;;;;;;;15.10;6.15;;;16.80;99.90;;;;;;4192345;28;20060;-71
2021/09/12 00:08:23;;;;;;;20.98;8.23;;;16.80;99.90;;;;;;4192712;28;20534;-71
2021/09/12 00:10:24;;;;;;;18.05;7.15;;;16.70;99.90;;;;;;4192591;28;20033;-71
2021/09/12 00:12:24;;;;;;;13.25;6.97;;;16.70;99.90;;;;;;4192390;28;20032;-71
2021/09/12 00:14:25;;;;;;;19.73;8.10;;;16.80;99.90;;;;;;4190448;28;20025;-71
2021/09/12 00:16:26;;;;;;;17.83;8.20;;;16.80;99.90;;;;;;4194354;28;20043;-72
2021/09/12 00:18:27;;;;;;;17.75;8.52;;;16.70;99.90;;;;;;4194264;28;20052;-72
2021/09/12 00:20:27;;;;;;;16.25;8.40;;;16.70;99.90;;;;;;4194624;28;20036;-72
2021/09/12 00:22:28;;;;;;;18.27;8.27;;;16.70;99.90;;;;;;4194368;28;20111;-72
2021/09/12 00:24:29;;;;;;;21.05;9.00;;;16.70;99.90;;;;;;4196155;28;20045;-72
2021/09/12 00:26:29;;;;;;;20.85;9.63;;;16.70;99.90;;;;;;4193511;28;20051;-72
2021/09/12 00:28:30;;;;;;;21.23;9.00;;;16.70;99.90;;;;;;4196468;28;20037;-72
2021/09/12 00:30:31;;;;;;;19.52;10.25;;;16.70;99.90;;;;;;4194101;28;20028;-72
2021/09/12 00:32:32;;;;;;;18.58;9.60;;;16.80;99.90;;;;;;4197242;28;20036;-72
2021/09/12 00:34:33;;;;;;;25.75;10.75;;;16.80;99.90;;;;;;4195105;28;20384;-72
2021/09/12 00:36:33;;;;;;;26.83;10.43;;;16.80;99.90;;;;;;4195108;28;20118;-72
2021/09/12 00:38:34;;;;;;;20.95;10.50;;;16.80;99.90;;;;;;4195418;28;20082;-72
2021/09/12 00:40:34;;;;;;;23.05;11.00;;;16.80;99.90;;;;;;4195586;28;20079;-71
2021/09/12 00:42:35;;;;;;;19.70;10.25;;;16.90;99.90;;;;;;4193459;28;20136;-72
2021/09/12 00:44:36;;;;;;;24.92;10.65;;;16.80;99.90;;;;;;4196641;28;20040;-71
2021/09/12 00:46:41;;;;;;;28.00;11.57;;;16.80;99.90;;;;;;4195527;28;20041;-72
2021/09/12 00:48:42;;;;;;;22.10;10.82;;;16.90;99.90;;;;;;4196673;28;20020;-72
2021/09/12 00:50:42;;;;;;;17.60;9.95;;;16.90;99.90;;;;;;4194931;28;20036;-72
2021/09/12 00:52:45;;;;;;;16.50;10.27;;;16.90;99.90;;;;;;4195398;28;20079;-72
2021/09/12 00:54:49;;;;;;;25.75;12.13;;;16.90;99.90;;;;;;4195097;28;20040;-71
2021/09/12 00:56:50;;;;;;;19.90;11.00;;;16.90;99.90;;;;;;4196952;28;20060;-72
2021/09/12 00:58:53;;;;;;;18.08;10.73;;;16.90;99.90;;;;;;4196011;28;20035;-72
2021/09/12 01:00:54;;;;;;;19.77;10.57;;;16.90;99.90;;;;;;4192745;28;20496;-72
2021/09/12 01:02:55;;;;;;;25.50;11.63;;;16.90;99.90;;;;;;4202484;28;20037;-72
2021/09/12 01:04:56;;;;;;;28.65;11.10;;;16.90;99.90;;;;;;4195490;28;20090;-72
2021/09/12 01:06:57;;;;;;;17.52;11.10;;;16.90;99.90;;;;;;4196045;28;20051;-72
2021/09/12 01:08:59;;;;;;;23.02;11.30;;;16.90;99.90;;;;;;4194741;28;20040;-72
2021/09/12 01:11:00;;;;;;;18.05;10.77;;;16.90;99.90;;;;;;4195694;28;20037;-71
2021/09/12 01:13:01;;;;;;;20.15;11.73;;;16.80;99.90;;;;;;4193757;28;20150;-72
2021/09/12 01:15:02;;;;;;;23.58;12.88;;;16.80;99.90;;;;;;4186850;28;20515;-72
2021/09/12 01:17:03;;;;;;;20.52;12.30;;;16.70;99.90;;;;;;4196374;28;20112;-72
2021/09/12 01:19:04;;;;;;;18.33;10.73;;;16.70;99.90;;;;;;4192552;28;20111;-71
2021/09/12 01:21:10;;;;;;;20.33;11.45;;;16.60;99.90;;;;;;4192088;28;20760;-72
2021/09/12 01:23:10;;;;;;;20.65;11.70;;;16.60;99.90;;;;;;4194778;28;20154;-71
2021/09/12 01:25:11;;;;;;;17.40;11.55;;;16.60;99.90;;;;;;4192448;28;20476;-71
2021/09/12 01:27:12;;;;;;;17.60;11.75;;;16.60;99.90;;;;;;4191463;28;20067;-72
2021/09/12 01:29:16;;;;;;;18.58;13.07;;;16.50;99.90;;;;;;4191676;28;20176;-71
2021/09/12 01:31:20;;;;;;;17.92;11.48;;;16.50;99.90;;;;;;4190921;28;20047;-71
2021/09/12 01:33:21;;;;;;;18.00;10.43;;;16.50;99.90;;;;;;4188502;28;20103;-71
2021/09/12 01:35:22;;;;;;;19.67;11.15;;;16.50;99.90;;;;;;4194258;28;20028;-72
2021/09/12 01:37:22;;;;;;;19.48;10.23;;;16.50;99.90;;;;;;4191399;28;20039;-72
2021/09/12 01:39:23;;;;;;;20.90;11.30;;;16.30;99.90;;;;;;4193567;28;20345;-72
2021/09/12 01:41:23;;;;;;;16.80;9.38;;;16.20;99.90;;;;;;4190611;28;20169;-71
2021/09/12 01:43:24;;;;;;;20.35;11.27;;;16.10;99.90;;;;;;4193557;28;20086;-71
2021/09/12 01:45:25;;;;;;;14.65;9.20;;;16.00;99.90;;;;;;4193222;28;20067;-71
2021/09/12 01:47:25;;;;;;;20.77;9.82;;;15.90;99.90;;;;;;4194915;28;20444;-71
2021/09/12 01:49:26;;;;;;;17.33;8.77;;;15.90;99.90;;;;;;4193629;28;20028;-71
2021/09/12 01:51:27;;;;;;;15.75;9.57;;;15.90;99.90;;;;;;4196583;28;20108;-72
2021/09/12 01:53:27;;;;;;;15.60;9.65;;;15.80;99.90;;;;;;4189079;28;20025;-71
2021/09/12 01:55:28;;;;;;;18.75;9.10;;;15.70;99.90;;;;;;4194957;28;20488;-71
2021/09/12 01:57:29;;;;;;;16.02;9.65;;;15.60;99.90;;;;;;4194403;28;20043;-71
2021/09/12 01:59:29;;;;;;;22.60;10.93;;;15.60;99.90;;;;;;4195098;28;20127;-71
2021/09/12 02:01:30;;;;;;;21.33;9.02;;;15.50;99.90;;;;;;4193048;28;20040;-71
2021/09/12 02:03:31;;;;;;;12.63;8.25;;;15.50;99.90;;;;;;4195031;28;20041;-72
2021/09/12 02:05:31;;;;;;;19.17;9.32;;;15.40;99.90;;;;;;4192435;28;20028;-71
2021/09/12 02:07:33;;;;;;;16.75;8.65;;;15.50;99.90;;;;;;4195909;28;20041;-72
2021/09/12 02:09:33;;;;;;;14.30;8.35;;;15.60;99.90;;;;;;4190947;28;20151;-71
2021/09/12 02:11:34;;;;;;;13.30;8.05;;;15.60;99.90;;;;;;4196618;28;20048;-71
2021/09/12 02:13:35;;;;;;;16.25;8.27;;;15.60;99.90;;;;;;4191538;28;20113;-71
2021/09/12 02:15:35;;;;;;;14.82;8.00;;;15.60;99.90;;;;;;4196082;28;20056;-72
2021/09/12 02:17:36;;;;;;;14.48;8.32;;;15.50;99.90;;;;;;4192319;28;20033;-72
2021/09/12 02:19:37;;;;;;;13.65;8.70;;;15.60;99.90;;;;;;4196360;28;20132;-72
2021/09/12 02:21:37;;;;;;;15.50;9.32;;;15.60;99.90;;;;;;4191636;28;20069;-72
2021/09/12 02:23:38;;;;;;;9.45;6.82;;;15.60;99.90;;;;;;4195765;28;20376;-72
2021/09/12 02:25:39;;;;;;;20.13;8.00;;;15.50;99.90;;;;;;4192891;28;20039;-72
2021/09/12 02:27:39;;;;;;;18.63;9.55;;;15.60;99.90;;;;;;4196082;28;20024;-73
2021/09/12 02:29:40;;;;;;;14.85;8.00;;;15.60;99.90;;;;;;4194258;28;20468;-72
2021/09/12 02:31:40;;;;;;;11.45;7.65;;;15.60;99.90;;;;;;4192163;28;20121;-72
2021/09/12 02:33:43;;;;;;;16.50;9.30;;;;;;;;;;4186587;28;20021;-72
2021/09/12 02:35:43;;;;;;;12.80;9.15;;;15.30;99.90;;;;;;4195508;28;20739;-72
2021/09/12 02:37:44;;;;;;;12.57;8.32;;;15.30;99.90;;;;;;4190648;28;20029;-73
2021/09/12 02:39:45;;;;;;;18.38;7.97;;;15.20;99.90;;;;;;4194970;28;20041;-73
2021/09/12 02:41:45;;;;;;;13.65;8.95;;;15.20;99.90;;;;;;4189408;28;20428;-72
2021/09/12 02:43:46;;;;;;;16.30;8.02;;;15.10;99.90;;;;;;4188363;28;20079;-72
2021/09/12 02:45:46;;;;;;;26.90;11.20;;;15.00;99.90;;;;;;4187208;28;20041;-71
2021/09/12 02:47:47;;;;;;;14.88;9.35;;;14.90;99.90;;;;;;4194944;28;20472;-71
2021/09/12 02:49:48;;;;;;;14.40;8.45;;;14.80;99.90;;;;;;4190609;28;20032;-71
2021/09/12 02:51:48;;;;;;;19.10;10.70;;;14.80;99.90;;;;;;4195190;28;20047;-71
2021/09/12 02:53:49;;;;;;;17.00;9.88;;;14.80;99.90;;;;;;4186930;28;20041;-72
2021/09/12 02:55:50;;;;;;;18.73;9.40;;;14.80;99.90;;;;;;4194762;28;20112;-70
2021/09/12 02:57:51;;;;;;;16.65;10.02;;;14.70;99.90;;;;;;4187286;28;20031;-70
2021/09/12 02:59:51;;;;;;;20.20;10.18;;;14.80;99.90;;;;;;4202774;28;20044;-73
2021/09/12 03:01:52;;;;;;;21.55;10.73;;;14.80;99.90;;;;;;4185983;28;20029;-71
2021/09/12 03:03:53;;;;;;;17.17;10.65;;;14.70;99.90;;;;;;4195414;28;20036;-70
2021/09/12 03:05:55;;;;;;;16.38;11.25;;;14.80;99.90;;;;;;4187865;28;20037;-72
2021/09/12 03:07:55;;;;;;;20.02;12.02;;;14.70;99.90;;;;;;4191352;28;20029;-70
2021/09/12 03:09:56;;;;;;;20.10;11.57;;;14.70;99.90;;;;;;4191707;28;20028;-71
2021/09/12 03:11:57;;;;;;;22.88;12.02;;;14.70;99.90;;;;;;4193735;28;20136;-71
2021/09/12 03:13:57;;;;;;;20.42;12.98;;;14.60;99.90;;;;;;4189338;28;20021;-73
2021/09/12 03:15:58;;;;;;;28.33;12.63;;;14.60;99.90;;;;;;4193857;28;20067;-73
2021/09/12 03:17:59;;;;;;;22.50;12.95;;;14.50;99.90;;;;;;4188439;28;20037;-73
2021/09/12 03:19:59;;;;;;;20.75;11.82;;;14.50;99.90;;;;;;4192127;28;20444;-71
2021/09/12 03:22:00;;;;;;;20.73;13.80;;;14.40;99.90;;;;;;4189687;28;20063;-71
2021/09/12 03:24:01;;;;;;;23.50;13.13;;;14.40;99.90;;;;;;4193611;28;20036;-72
2021/09/12 03:26:01;;;;;;;22.80;12.93;;;14.30;99.90;;;;;;4192279;28;20025;-72
2021/09/12 03:28:02;;;;;;;22.67;13.15;;;14.30;99.90;;;;;;4195185;28;20036;-71
2021/09/12 03:30:04;;;;;;;20.77;13.60;;;14.30;99.90;;;;;;4186136;28;20028;-72
2021/09/12 03:32:05;;;;;;;26.45;15.32;;;14.30;99.90;;;;;;4193587;28;20070;-71
2021/09/12 03:34:06;;;;;;;21.33;14.35;;;14.30;99.90;;;;;;4188089;28;20060;-71
2021/09/12 03:36:07;;;;;;;21.92;13.70;;;14.20;99.90;;;;;;4193507;28;20041;-71
2021/09/12 03:38:08;;;;;;;23.77;14.93;;;14.20;99.90;;;;;;4192080;28;20021;-73
2021/09/12 03:40:10;;;;;;;21.25;12.95;;;14.10;99.90;;;;;;4193787;28;20064;-73
2021/09/12 03:42:11;;;;;;;25.38;14.20;;;14.10;99.90;;;;;;4192376;28;20029;-73
2021/09/12 03:44:12;;;;;;;18.48;12.15;;;14.10;99.90;;;;;;4193714;28;20048;-73
2021/09/12 03:46:12;;;;;;;27.02;14.48;;;14.00;99.90;;;;;;4188445;28;20041;-73
2021/09/12 03:48:14;;;;;;;26.85;13.65;;;;;;;;;;4193670;28;20058;-71
2021/09/12 03:50:14;;;;;;;36.70;16.13;;;14.00;99.90;;;;;;4188319;28;20120;-71
2021/09/12 03:52:15;;;;;;;26.35;13.88;;;13.90;99.90;;;;;;4197617;28;20492;-71
2021/09/12 03:54:16;;;;;;;23.10;14.98;;;;;;;;;;4197343;28;20040;-71
2021/09/12 03:56:17;;;;;;;28.92;15.55;;;13.70;99.90;;;;;;4196619;28;20383;-72
2021/09/12 03:58:17;;;;;;;28.42;14.75;;;13.60;99.90;;;;;;4194598;28;20047;-71
2021/09/12 04:00:18;;;;;;;26.77;14.73;;;13.60;99.90;;;;;;4197976;28;20086;-71
2021/09/12 04:02:19;;;;;;;22.15;13.38;;;13.60;99.90;;;;;;4190193;28;20064;-72
2021/09/12 04:04:19;;;;;;;28.35;14.88;;;13.50;99.90;;;;;;4195619;28;20028;-72
2021/09/12 04:06:20;;;;;;;23.23;13.98;;;13.50;99.90;;;;;;4199025;28;20093;-72
2021/09/12 04:08:20;;;;;;;34.03;16.60;;;13.30;99.90;;;;;;4194777;28;20088;-72
2021/09/12 04:10:22;;;;;;;33.88;17.40;;;13.20;99.90;;;;;;4188064;28;20056;-72
2021/09/12 04:12:22;;;;;;;29.77;16.65;;;13.20;99.90;;;;;;4194699;28;20033;-72
2021/09/12 04:14:23;;;;;;;31.23;16.13;;;13.30;99.90;;;;;;4195632;28;20074;-73
2021/09/12 04:16:24;;;;;;;32.00;16.23;;;13.30;99.90;;;;;;4196780;28;20035;-73
2021/09/12 04:18:24;;;;;;;32.22;16.13;;;13.30;99.90;;;;;;4187946;28;20040;-73
2021/09/12 04:20:25;;;;;;;36.25;19.02;;;13.20;99.90;;;;;;4197034;28;20037;-73
2021/09/12 04:22:26;;;;;;;32.92;16.77;;;13.20;99.90;;;;;;4190100;28;20129;-73
2021/09/12 04:24:27;;;;;;;36.85;17.42;;;13.10;99.90;;;;;;4195324;28;20037;-73
2021/09/12 04:26:27;;;;;;;36.88;18.35;;;13.10;99.90;;;;;;4192205;28;20033;-73
2021/09/12 04:28:28;;;;;;;46.33;17.58;;;13.10;99.90;;;;;;4196987;28;20472;-72
2021/09/12 04:30:28;;;;;;;32.53;16.70;;;13.00;99.90;;;;;;4195912;28;20373;-72
2021/09/12 04:32:30;;;;;;;43.15;18.42;;;13.00;99.90;;;;;;4197694;28;20484;-72
2021/09/12 04:34:30;;;;;;;37.28;16.60;;;13.00;99.90;;;;;;4191494;28;20095;-72
2021/09/12 04:36:31;;;;;;;31.90;17.48;;;12.90;99.90;;;;;;4197199;28;20036;-72
2021/09/12 04:38:32;;;;;;;41.85;17.55;;;12.90;99.90;;;;;;4190982;28;20033;-72
2021/09/12 04:40:33;;;;;;;29.67;16.23;;;12.80;99.90;;;;;;4197252;28;20059;-71
2021/09/12 04:42:33;;;;;;;39.88;17.17;;;12.80;99.90;;;;;;4206893;28;20539;-71
2021/09/12 04:44:34;;;;;;;41.15;17.92;;;12.80;99.90;;;;;;4197112;28;20090;-72
2021/09/12 04:46:35;;;;;;;43.83;19.00;;;12.70;99.90;;;;;;4196672;28;20563;-72
2021/09/12 04:48:36;;;;;;;40.80;19.45;;;12.60;99.90;;;;;;4197260;28;20043;-73
2021/09/12 04:50:36;;;;;;;44.10;18.80;;;12.60;99.90;;;;;;4187135;28;20441;-72
2021/09/12 04:52:37;;;;;;;51.33;20.00;;;12.60;99.90;;;;;;4196660;28;20090;-73
2021/09/12 04:54:38;;;;;;;42.22;21.15;;;12.80;99.90;;;;;;4191433;28;20056;-72
2021/09/12 04:56:38;;;;;;;46.78;21.27;;;12.90;99.90;;;;;;4195380;28;20051;-72
2021/09/12 04:58:39;;;;;;;50.22;21.40;;;12.80;99.90;;;;;;4191300;28;20033;-72
2021/09/12 05:00:40;;;;;;;43.03;21.23;;;12.70;99.90;;;;;;4196284;28;20569;-72
2021/09/12 05:02:41;;;;;;;51.85;22.50;;;12.70;99.90;;;;;;4189709;28;20033;-72
2021/09/12 05:04:41;;;;;;;49.13;21.13;;;12.70;99.90;;;;;;4191000;28;20033;-72
2021/09/12 05:06:42;;;;;;;42.85;21.20;;;12.70;99.90;;;;;;4193602;28;20053;-72
2021/09/12 05:08:43;;;;;;;49.35;23.20;;;12.70;99.90;;;;;;4194700;28;20071;-72
2021/09/12 05:10:43;;;;;;;56.22;26.10;;;12.70;99.90;;;;;;4193434;28;20508;-73
2021/09/12 05:12:44;;;;;;;55.08;25.38;;;12.80;99.90;;;;;;4192705;28;20025;-73
2021/09/12 05:14:44;;;;;;;55.85;25.08;;;12.80;99.90;;;;;;4191244;28;20028;-72
2021/09/12 05:16:45;;;;;;;57.08;26.77;;;12.90;99.90;;;;;;4193045;28;20045;-73
2021/09/12 05:18:46;;;;;;;60.45;27.20;;;13.00;99.90;;;;;;4189843;28;20033;-73
2021/09/12 05:20:46;;;;;;;54.50;25.50;;;13.20;99.90;;;;;;4189967;28;20033;-72
2021/09/12 05:22:47;;;;;;;53.38;27.15;;;13.30;99.90;;;;;;4185445;28;20037;-73
2021/09/12 05:24:48;;;;;;;53.05;27.85;;;13.30;99.90;;;;;;4187687;28;20068;-71
2021/09/12 05:26:49;;;;;;;56.22;25.50;;;13.40;99.90;;;;;;4183630;28;20037;-72
2021/09/12 05:28:49;;;;;;;57.10;25.73;;;13.50;99.90;;;;;;4188461;28;20040;-72
2021/09/12 05:30:50;;;;;;;52.70;25.83;;;13.60;99.90;;;;;;4186464;28;20057;-71
2021/09/12 05:32:51;;;;;;;47.67;25.05;;;13.60;99.90;;;;;;4185462;28;20159;-72
2021/09/12 05:34:52;;;;;;;44.90;25.88;;;13.60;99.90;;;;;;4188764;28;20039;-72
2021/09/12 05:36:52;;;;;;;49.67;24.33;;;13.70;99.90;;;;;;4188448;28;20028;-72
2021/09/12 05:38:53;;;;;;;46.00;25.13;;;13.80;99.90;;;;;;4185855;28;20562;-71
2021/09/12 05:40:53;;;;;;;39.28;23.05;;;13.80;99.90;;;;;;4190999;28;20353;-71
2021/09/12 05:42:54;;;;;;;37.90;21.75;;;13.90;99.90;;;;;;4189400;28;20041;-72
2021/09/12 05:44:55;;;;;;;40.80;22.27;;;13.90;99.90;;;;;;4191125;28;20046;-71
2021/09/12 05:46:55;;;;;;;53.88;24.13;;;14.00;99.90;;;;;;4185904;28;20076;-71
2021/09/12 05:48:56;;;;;;;43.60;25.33;;;14.00;99.90;;;;;;4191075;28;20063;-72
2021/09/12 05:50:57;;;;;;;44.58;25.35;;;14.00;99.90;;;;;;4192059;28;20051;-72
2021/09/12 05:52:57;;;;;;;34.88;21.90;;;14.10;99.90;;;;;;4196444;28;20380;-72
2021/09/12 05:54:58;;;;;;;36.58;22.90;;;14.10;99.90;;;;;;4195934;28;20048;-71
2021/09/12 05:56:59;;;;;;;37.67;21.20;;;14.20;99.90;;;;;;4190494;28;20029;-72
2021/09/12 05:58:59;;;;;;;37.47;22.90;;;14.30;99.90;;;;;;4194759;28;20059;-72
2021/09/12 06:01:00;;;;;;;35.55;23.48;;;14.20;99.90;;;;;;4195673;28;20126;-72
2021/09/12 06:03:01;;;;;;;38.45;21.88;;;14.10;99.90;;;;;;4194772;28;20048;-72
2021/09/12 06:05:03;;;;;;;36.30;21.77;;;14.10;99.90;;;;;;4194385;28;20120;-72
2021/09/12 06:07:04;;;;;;;33.08;20.73;;;14.10;99.90;;;;;;4194558;28;20040;-72
2021/09/12 06:09:05;;;;;;;37.38;22.85;;;14.30;99.90;;;;;;4193760;28;20035;-72
2021/09/12 06:11:09;;;;;;;33.47;20.92;;;14.40;99.90;;;;;;4191792;28;20041;-72
2021/09/12 06:13:10;;;;;;;34.30;21.15;;;14.50;99.90;;;;;;4195312;28;20383;-72
2021/09/12 06:15:11;;;;;;;28.50;18.67;;;14.60;99.90;;;;;;4193916;28;20033;-72
2021/09/12 06:17:12;;;;;;;30.63;20.67;;;14.70;99.90;;;;;;4195608;28;20035;-72
2021/09/12 06:19:12;;;;;;;29.85;20.08;;;14.80;99.90;;;;;;4192753;28;20387;-72
2021/09/12 06:21:13;;;;;;;31.63;20.95;;;14.90;99.90;;;;;;4193474;28;20070;-73
2021/09/12 06:23:14;;;;;;;30.45;19.73;;;15.00;99.90;;;;;;4192786;28;20040;-71
2021/09/12 06:25:14;;;;;;;27.98;19.92;;;15.10;99.90;;;;;;4195713;28;20036;-73
2021/09/12 06:27:15;;;;;;;32.47;20.50;;;15.10;99.90;;;;;;4191905;28;20032;-73
2021/09/12 06:29:15;;;;;;;28.67;19.98;;;15.20;99.90;;;;;;4194975;28;20035;-73
2021/09/12 06:31:17;;;;;;;33.42;19.33;;;15.30;99.90;;;;;;4185101;28;20028;-72
2021/09/12 06:33:17;;;;;;;25.02;19.20;;;15.40;99.90;;;;;;4195624;28;20043;-72
2021/09/12 06:35:18;;;;;;;26.83;17.52;;;15.40;99.90;;;;;;4190169;28;20028;-71
2021/09/12 06:37:18;;;;;;;30.58;19.30;;;15.60;99.90;;;;;;4191352;28;20047;-73
2021/09/12 06:39:21;;;;;;;25.15;18.00;;;15.70;99.90;;;;;;4186824;28;20059;-71
2021/09/12 06:41:21;;;;;;;25.52;18.75;;;15.80;99.90;;;;;;4192053;28;20476;-71
2021/09/12 06:43:23;;;;;;;31.90;16.92;;;15.80;99.90;;;;;;4188197;28;20075;-72
2021/09/12 06:45:25;;;;;;;26.95;16.88;;;15.80;99.90;;;;;;4193017;28;20091;-72
2021/09/12 06:47:25;;;;;;;28.67;19.38;;;15.80;99.90;;;;;;4189617;28;20028;-70
2021/09/12 06:49:26;;;;;;;21.10;15.77;;;15.80;99.90;;;;;;4191397;28;20040;-70
2021/09/12 06:51:27;;;;;;;25.77;17.17;;;15.70;99.90;;;;;;4184166;28;20357;-72
2021/09/12 06:53:27;;;;;;;34.33;18.48;;;15.70;99.90;;;;;;4189643;28;20037;-71
2021/09/12 06:55:28;;;;;;;25.60;17.30;;;15.60;99.90;;;;;;4192278;28;20088;-71
2021/09/12 06:57:29;;;;;;;22.95;16.65;;;15.70;99.90;;;;;;4192224;28;20075;-71
2021/09/12 06:59:29;;;;;;;28.98;17.40;;;15.70;99.90;;;;;;4194111;28;20473;-71
2021/09/12 07:01:30;;;;;;;31.33;17.55;;;15.80;99.90;;;;;;4192403;28;20500;-71
2021/09/12 07:03:31;;;;;;;28.52;16.02;;;15.80;99.90;;;;;;4186021;28;20089;-72
2021/09/12 07:05:31;;;;;;;21.88;14.63;;;15.90;99.90;;;;;;4189874;28;20359;-71
2021/09/12 07:07:32;;;;;;;24.75;16.58;;;15.90;99.90;;;;;;4182148;28;20491;-72
2021/09/12 07:09:33;;;;;;;22.98;15.48;;;16.10;99.90;;;;;;4186197;28;20132;-71
2021/09/12 07:11:34;;;;;;;27.63;18.38;;;16.20;99.90;;;;;;4194484;28;20090;-71
2021/09/12 07:13:34;;;;;;;24.33;16.33;;;16.20;99.90;;;;;;4190154;28;20037;-70
2021/09/12 07:15:35;;;;;;;23.30;16.15;;;16.20;99.90;;;;;;4194931;28;20372;-70
2021/09/12 07:17:35;;;;;;;25.70;17.98;;;16.10;99.90;;;;;;4194196;28;20033;-73
2021/09/12 07:19:36;;;;;;;25.42;15.98;;;16.10;99.90;;;;;;4193457;28;20024;-71
2021/09/12 07:21:36;;;;;;;21.20;14.85;;;16.10;99.90;;;;;;4193198;28;20021;-71
2021/09/12 07:23:37;;;;;;;33.53;17.10;;;16.20;99.90;;;;;;4187627;28;20058;-71
2021/09/12 07:25:38;;;;;;;30.60;17.92;;;16.20;99.90;;;;;;4193847;28;20043;-71
2021/09/12 07:27:38;;;;;;;25.08;14.95;;;16.30;99.90;;;;;;4192752;28;20492;-71
2021/09/12 07:29:39;;;;;;;24.17;15.13;;;16.40;99.90;;;;;;4195350;28;20075;-71
2021/09/12 07:31:40;;;;;;;26.35;16.63;;;16.50;99.90;;;;;;4196804;28;20066;-70
2021/09/12 07:33:40;;;;;;;23.92;16.85;;;16.60;99.90;;;;;;4196922;28;20400;-71
2021/09/12 07:35:41;;;;;;;29.88;17.17;;;16.70;99.90;;;;;;4191992;28;20029;-71
2021/09/12 07:37:42;;;;;;;24.25;17.58;;;16.80;99.90;;;;;;4199099;28;20064;-71
2021/09/12 07:39:42;;;;;;;20.05;16.48;;;16.90;99.90;;;;;;4195011;28;20032;-71
2021/09/12 07:41:43;;;;;;;24.48;16.85;;;16.90;99.90;;;;;;4197516;28;20119;-70
2021/09/12 07:43:43;;;;;;;26.42;17.08;;;17.00;99.90;;;;;;4191732;28;20040;-70
2021/09/12 07:45:44;;;;;;;24.85;16.65;;;17.00;99.90;;;;;;4197916;28;20116;-71
2021/09/12 07:47:44;;;;;;;26.33;16.25;;;17.00;99.90;;;;;;4191819;28;20119;-71
2021/09/12 07:49:45;;;;;;;24.85;15.73;;;17.10;99.90;;;;;;4195792;28;20091;-71
2021/09/12 07:51:46;;;;;;;19.88;15.25;;;17.10;99.90;;;;;;4191486;28;20395;-71
2021/09/12 07:53:46;;;;;;;24.40;16.55;;;17.20;99.90;;;;;;4194040;28;20052;-70
2021/09/12 07:55:47;;;;;;;24.15;15.00;;;17.30;99.90;;;;;;4193140;28;20060;-71
2021/09/12 07:57:47;;;;;;;23.73;15.93;;;17.40;99.90;;;;;;4194963;28;20028;-70
2021/09/12 07:59:48;;;;;;;19.50;14.75;;;17.50;99.90;;;;;;4192279;28;20028;-71
2021/09/12 08:01:49;;;;;;;21.50;15.32;;;17.50;99.90;;;;;;4195451;28;20063;-71
2021/09/12 08:03:49;;;;;;;23.70;16.88;;;17.50;99.90;;;;;;4191438;28;20035;-71
2021/09/12 08:05:50;;;;;;;25.30;16.67;;;17.50;99.90;;;;;;4195528;28;20064;-71
2021/09/12 08:07:50;;;;;;;20.15;15.20;;;17.40;99.90;;;;;;4194712;28;20037;-70
2021/09/12 08:09:51;;;;;;;22.23;15.82;;;17.40;99.90;;;;;;4194895;28;20032;-71
2021/09/12 08:11:52;;;;;;;19.58;15.38;;;17.50;99.90;;;;;;4196685;28;20787;-71
2021/09/12 08:13:52;;;;;;;23.50;15.07;;;17.50;99.90;;;;;;4192012;28;20064;-71
2021/09/12 08:15:53;;;;;;;24.15;16.63;;;17.70;99.90;;;;;;4190030;28;20048;-71
2021/09/12 08:17:53;;;;;;;22.75;15.32;;;17.80;99.90;;;;;;4196172;28;20032;-71
2021/09/12 08:19:54;;;;;;;21.92;15.60;;;17.80;99.90;;;;;;4198272;28;20032;-71
2021/09/12 08:21:55;;;;;;;23.23;14.65;;;18.00;99.90;;;;;;4194671;28;20094;-71
2021/09/12 08:23:55;;;;;;;19.13;15.02;;;18.20;99.90;;;;;;4197797;28;20044;-70
2021/09/12 08:25:56;;;;;;;28.60;17.42;;;18.40;99.90;;;;;;4193873;28;20037;-70
2021/09/12 08:27:56;;;;;;;21.58;15.23;;;18.70;99.90;;;;;;4195426;28;20427;-71
2021/09/12 08:29:57;;;;;;;23.13;16.67;;;18.80;99.90;;;;;;4194101;28;20059;-71
2021/09/12 08:31:58;;;;;;;23.85;14.57;;;18.90;99.90;;;;;;4188731;28;20056;-70
2021/09/12 08:33:58;;;;;;;23.88;14.60;;;19.10;99.90;;;;;;4193794;28;20039;-72
2021/09/12 08:35:59;;;;;;;18.75;14.48;;;19.00;99.90;;;;;;4197827;28;20077;-72
2021/09/12 08:38:00;;;;;;;27.27;14.70;;;18.80;99.90;;;;;;4196018;28;20367;-70
2021/09/12 08:40:01;;;;;;;21.10;14.68;;;18.80;99.90;;;;;;4196419;28;20566;-70
2021/09/12 08:42:01;;;;;;;20.98;14.32;;;18.70;99.90;;;;;;4191740;28;20092;-71
2021/09/12 08:44:02;;;;;;;17.75;14.00;;;19.00;99.90;;;;;;4195911;28;20036;-70
2021/09/12 08:46:03;;;;;;;25.15;14.57;;;19.30;99.90;;;;;;4193785;28;20141;-71
2021/09/12 08:48:05;;;;;;;22.00;13.63;;;19.60;99.90;;;;;;4197390;28;20024;-72
2021/09/12 08:50:06;;;;;;;23.42;15.43;;;20.00;99.90;;;;;;4190769;28;20032;-71
2021/09/12 08:52:07;;;;;;;24.15;15.55;;;19.80;99.90;;;;;;4195954;28;20028;-72
2021/09/12 08:54:07;;;;;;;23.63;15.45;;;19.50;99.90;;;;;;4194315;28;20028;-72
2021/09/12 08:56:08;;;;;;;21.45;15.85;;;19.20;99.90;;;;;;4198328;28;20111;-72
2021/09/12 08:58:11;;;;;;;21.98;16.15;;;19.00;99.90;;;;;;4193591;28;20044;-70
2021/09/12 09:00:30;;;;;;;23.95;17.02;;;18.70;99.90;;;;;;4197227;28;20379;-71
2021/09/12 09:02:32;;;;;;;23.85;16.85;;;18.40;99.90;;;;;;4191722;28;20063;-71
2021/09/12 09:04:34;;;;;;;21.67;16.55;;;18.20;99.90;;;;;;4194800;28;20103;-70
2021/09/12 09:06:37;;;;;;;25.17;17.20;;;18.10;99.90;;;;;;4192969;28;20162;-70
2021/09/12 09:08:55;;;;;;;25.48;18.65;;;18.00;99.90;;;;;;4197159;28;20368;-71
2021/09/12 09:10:56;;;;;;;23.70;16.98;;;18.00;99.90;;;;;;4196343;28;20040;-71
2021/09/12 09:12:58;;;;;;;25.30;17.25;;;18.00;99.90;;;;;;4196317;28;20064;-70
2021/09/12 09:15:13;;;;;;;22.65;17.92;;;18.00;99.90;;;;;;4190866;28;20087;-70
2021/09/12 09:17:20;;;;;;;24.05;15.90;;;18.10;99.90;;;;;;4191037;28;20070;-70
2021/09/12 09:19:22;;;;;;;24.05;17.70;;;18.20;99.90;;;;;;4193679;28;20032;-71
2021/09/12 09:21:29;;;;;;;27.98;17.02;;;18.40;99.90;;;;;;4195803;28;20025;-71
2021/09/12 09:23:30;;;;;;;27.27;16.65;;;18.50;99.90;;;;;;4190668;28;20056;-69
2021/09/12 09:25:31;;;;;;;23.75;16.23;;;18.70;99.90;;;;;;4193956;28;20032;-70
2021/09/12 09:27:50;;;;;;;23.55;16.38;;;18.80;99.90;;;;;;4195894;28;20460;-70
2021/09/12 09:29:55;;;;;;;22.45;16.42;;;19.00;99.90;;;;;;4190384;28;20704;-70
2021/09/12 09:32:07;;;;;;;27.48;18.25;;;19.10;99.90;;;;;;4194883;28;20041;-70
2021/09/12 09:34:16;;;;;;;35.07;19.70;;;19.20;99.90;;;;;;4191879;28;20119;-71
2021/09/12 09:36:18;;;;;;;26.25;17.65;;;19.10;99.90;;;;;;4194198;28;20329;-71
2021/09/12 09:38:21;;;;;;;38.50;20.55;;;19.20;99.90;;;;;;4188635;28;20419;-71
2021/09/12 09:40:22;;;;;;;30.45;20.63;;;19.30;99.90;;;;;;4196513;28;20094;-71
2021/09/12 09:42:45;;;;;;;36.65;21.42;;;19.50;99.90;;;;;;4194932;28;20480;-70
2021/09/12 09:45:00;;;;;;;31.23;20.15;;;19.40;99.90;;;;;;4195993;28;20109;-70
2021/09/12 09:47:10;;;;;;;33.63;20.05;;;19.40;99.90;;;;;;4194758;28;20094;-71
2021/09/12 09:49:22;;;;;;;30.30;19.83;;;19.40;99.90;;;;;;4192801;28;20493;-70
2021/09/12 09:51:23;;;;;;;30.80;20.27;;;19.40;99.90;;;;;;4194281;28;20119;-69
2021/09/12 09:53:24;;;;;;;35.47;21.77;;;19.40;99.90;;;;;;4192636;28;20041;-70
2021/09/12 09:55:26;;;;;;;33.03;21.52;;;19.60;99.90;;;;;;4196831;28;20033;-70
2021/09/12 09:57:29;;;;;;;34.08;21.80;;;19.80;99.90;;;;;;4191818;28;20029;-70
2021/09/12 09:59:30;;;;;;;41.80;24.15;;;19.90;99.90;;;;;;4196390;28;20024;-69
2021/09/12 10:01:31;;;;;;;46.67;23.55;;;19.90;99.90;;;;;;4191663;28;20082;-70
2021/09/12 10:03:32;;;;;;;40.40;23.70;;;19.70;99.90;;;;;;4194315;28;20056;-71
2021/09/12 10:05:34;;;;;;;35.67;21.35;;;19.80;99.90;;;;;;4194060;28;20029;-71
2021/09/12 10:07:36;;;;;;;34.33;22.38;;;19.80;99.90;;;;;;4194169;28;20029;-71
2021/09/12 10:09:37;;;;;;;39.97;22.73;;;19.90;99.90;;;;;;4194225;28;20737;-71
2021/09/12 10:11:41;;;;;;;31.73;20.52;;;20.10;99.90;;;;;;4190370;28;20040;-71
2021/09/12 10:13:43;;;;;;;29.85;22.17;;;20.20;99.90;;;;;;4192165;28;20494;-70
2021/09/12 10:15:48;;;;;;;31.50;21.65;;;20.30;99.90;;;;;;4196251;28;20456;-72
2021/09/12 10:17:52;;;;;;;33.15;22.52;;;20.40;99.90;;;;;;4193937;28;20487;-71